Oceanic Power — 3FGX3 — position and weather

sailwx.info

Track history (hours):
 
Tides and Currents Weather Stations Pressure Air Temp Water Temp Dewpoint Dewpoint Depression Visibility Wind Speed Wind Dir Waves Ship Positions

Oceanic Power

Last reported at 2017-Dec-03 16:23 UTC. Time now 2017-Dec-14 08:20 UTC.
Position S 27°54' E 154°04'.
Warning: this ship's position is 10 days out of date.

Length 225 m; draft 13.2 m.

Type: Cargo ship. MMSI: 354297000.

Date/timePositionNaut miles runAvg speedWind from/ knotsBaromVisibWave heightAir tempDewpointWater temp
2017-Dec-03 16:23S 27°54' E 154°04'510.2
2017-Dec-03 15:56S 27°59' E 154°04'610.4
2017-Dec-03 15:23S 28°04' E 154°04'410.6
2017-Dec-03 15:01S 28°08' E 154°04'510.3
2017-Dec-03 14:31S 28°13' E 154°04'510.0
2017-Dec-03 13:59S 28°19' E 154°04'710.3
2017-Dec-03 13:17S 28°26' E 154°04'1510.1
2017-Dec-03 11:47S 28°41' E 154°04'410.7
2017-Dec-03 11:22S 28°46' E 154°04'410.9
2017-Dec-03 10:58S 28°50' E 154°04'510.7
2017-Dec-03 10:29S 28°55' E 154°04'1210.2
2017-Dec-03 09:16S 29°07' E 154°02'20 9.9
2017-Dec-03 07:17S 29°26' E 153°55'310.1
2017-Dec-03 06:59S 29°29' E 153°54'192 9.4
2017-Dec-02 10:39S 32°30' E 152°42'2 9.9
2017-Dec-02 10:27S 32°32' E 152°40'4 9.5
2017-Dec-02 10:00S 32°36' E 152°38'5 9.4
2017-Dec-02 09:31S 32°40' E 152°35'510.0
2017-Dec-02 09:01S 32°44' E 152°31'510.0
2017-Dec-02 08:31S 32°48' E 152°28'5 9.4
2017-Dec-02 08:01S 32°50' E 152°23'510.2
2017-Dec-02 07:31S 32°52' E 152°17'510.6
2017-Dec-02 07:01S 32°53' E 152°11'510.6
2017-Dec-02 06:31S 32°55' E 152°05'510.5
2017-Dec-02 06:01S 32°57' E 151°59'510.6
2017-Dec-02 05:31S 32°57' E 151°53'4 8.0
2017-Dec-02 05:01S 32°55' E 151°49'2 4.5
2017-Dec-02 04:30S 32°55' E 151°46'2 3.0
2017-Dec-02 03:59S 32°53' E 151°46'0 0.0
2017-Dec-02 03:29S 32°53' E 151°46'0 0.0
2017-Dec-02 02:59S 32°53' E 151°46'0 0.0
2017-Dec-02 02:29S 32°53' E 151°46'0 0.0
2017-Dec-02 01:59S 32°53' E 151°46'0 0.0
2017-Dec-02 01:26S 32°53' E 151°46'0 0.0
2017-Dec-02 00:59S 32°53' E 151°46'0 0.0
2017-Dec-02 00:29S 32°53' E 151°46'0 0.0
2017-Dec-01 23:59S 32°53' E 151°46'0 0.0
2017-Dec-01 23:29S 32°53' E 151°46'0 0.0
2017-Dec-01 22:59S 32°53' E 151°46'0 0.0
2017-Dec-01 22:29S 32°53' E 151°46'0 0.0
2017-Dec-01 21:59S 32°53' E 151°46'0 0.0
2017-Dec-01 21:29S 32°53' E 151°46'0 0.0
2017-Dec-01 20:59S 32°53' E 151°46'0 0.0
2017-Dec-01 20:29S 32°53' E 151°46'0 0.0
2017-Dec-01 19:59S 32°53' E 151°46'0 0.0
2017-Dec-01 19:29S 32°53' E 151°46'0 0.0
2017-Dec-01 18:59S 32°53' E 151°46'0 0.0
2017-Dec-01 18:29S 32°53' E 151°46'0 0.0
2017-Dec-01 17:59S 32°53' E 151°46'0 0.0
2017-Dec-01 17:29S 32°53' E 151°46'0 0.0
2017-Dec-01 16:59S 32°53' E 151°46'0 0.0
2017-Dec-01 16:29S 32°53' E 151°46'0 0.0
2017-Dec-01 15:59S 32°53' E 151°46'0 0.0
2017-Dec-01 15:29S 32°53' E 151°46'0 0.0
2017-Dec-01 14:59S 32°53' E 151°46'0 0.0
2017-Dec-01 14:29S 32°53' E 151°46'0 0.0
2017-Dec-01 13:59S 32°53' E 151°46'0 0.0
2017-Dec-01 13:29S 32°53' E 151°46'0 0.0
2017-Dec-01 12:59S 32°53' E 151°46'0 0.0
2017-Dec-01 12:29S 32°53' E 151°46'0 0.0
2017-Dec-01 11:59S 32°53' E 151°46'0 0.0
2017-Dec-01 11:29S 32°53' E 151°46'0 0.0
2017-Dec-01 10:59S 32°53' E 151°46'0 0.0
2017-Dec-01 10:29S 32°53' E 151°46'0 0.0
2017-Dec-01 09:59S 32°53' E 151°46'0 0.8
2017-Dec-01 09:30S 32°54' E 151°46'2 4.0
2017-Dec-01 09:00S 32°55' E 151°48'4 8.1
2017-Dec-01 08:30S 32°58' E 151°51'4 8.7
2017-Dec-01 08:00S 33°02' E 151°54'5 9.1
2017-Dec-01 07:30S 33°06' E 151°56'2 3.3
2017-Dec-01 07:00S 33°06' E 151°58'1 3.0
2017-Dec-01 06:30S 33°05' E 151°60'2 3.2
2017-Dec-01 06:00S 33°05' E 152°01'2 3.1
2017-Dec-01 05:30S 33°04' E 152°03'2 3.1
2017-Dec-01 05:00S 33°04' E 152°05'2 3.2
2017-Dec-01 04:30S 33°03' E 152°07'2 3.3
2017-Dec-01 04:00S 33°03' E 152°09'3 5.6
2017-Dec-01 03:30S 33°05' E 152°08'5 9.9
2017-Dec-01 03:00S 33°10' E 152°07'3 6.5
2017-Dec-01 02:30S 33°13' E 152°05'2 3.5
2017-Dec-01 02:00S 33°12' E 152°06'2 3.4
2017-Dec-01 01:30S 33°10' E 152°06'2 3.2
2017-Dec-01 01:00S 33°08' E 152°07'2 3.0
2017-Dec-01 00:30S 33°07' E 152°07'4 8.8
2017-Dec-01 00:00S 33°03' E 152°05'611.5
2017-Nov-30 23:30S 32°59' E 152°00'3 5.5
2017-Nov-30 23:00S 32°56' E 152°02'611.8
2017-Nov-30 22:30S 32°54' E 152°08'713.7
2017-Nov-30 22:01S 32°52' E 152°16'713.8
2017-Nov-30 21:30S 32°49' E 152°24'713.9
2017-Nov-30 21:00S 32°46' E 152°31'713.5
2017-Nov-30 20:30S 32°41' E 152°36'713.7
2017-Nov-30 20:01S 32°35' E 152°40'714.3
2017-Nov-30 19:30S 32°28' E 152°44'23614.4
2017-Nov-30 03:08S 28°42' E 154°03'212.9
2017-Nov-30 03:00S 28°41' E 154°04'713.0
2017-Nov-30 02:30S 28°34' E 154°04'612.9
2017-Nov-30 02:00S 28°28' E 154°04'713.0
2017-Nov-30 01:29S 28°21' E 154°04'613.0
2017-Nov-30 01:00S 28°15' E 154°03'613.2
2017-Nov-30 00:30S 28°08' E 154°03'713.2
2017-Nov-30 00:00S 28°01' E 154°04'613.0
2017-Nov-29 23:30S 27°55' E 154°04'1313.5
2017-Nov-29 22:33S 27°42' E 154°04'  
Track history (hours):
 
Tides and Currents Weather Stations Pressure Air Temp Water Temp Dewpoint Dewpoint Depression Visibility Wind Speed Wind Dir Waves Ship Positions

Oceanic Power

Last reported at 2017-Dec-03 16:23 UTC. Time now 2017-Dec-14 08:20 UTC.
Position S 27°54' E 154°04'.
Warning: this ship's position is 10 days out of date.

Length 225 m; draft 13.2 m.

Type: Cargo ship. MMSI: 354297000.

Date/timePositionNaut miles runAvg speedWind from/ knotsBaromVisibWave heightAir tempDewpointWater temp
2017-Dec-03 16:23S 27°54' E 154°04'510.2
2017-Dec-03 15:56S 27°59' E 154°04'610.4
2017-Dec-03 15:23S 28°04' E 154°04'410.6
2017-Dec-03 15:01S 28°08' E 154°04'510.3
2017-Dec-03 14:31S 28°13' E 154°04'510.0
2017-Dec-03 13:59S 28°19' E 154°04'710.3
2017-Dec-03 13:17S 28°26' E 154°04'1510.1
2017-Dec-03 11:47S 28°41' E 154°04'410.7
2017-Dec-03 11:22S 28°46' E 154°04'410.9
2017-Dec-03 10:58S 28°50' E 154°04'510.7
2017-Dec-03 10:29S 28°55' E 154°04'1210.2
2017-Dec-03 09:16S 29°07' E 154°02'20 9.9
2017-Dec-03 07:17S 29°26' E 153°55'310.1
2017-Dec-03 06:59S 29°29' E 153°54'192 9.4
2017-Dec-02 10:39S 32°30' E 152°42'2 9.9
2017-Dec-02 10:27S 32°32' E 152°40'4 9.5
2017-Dec-02 10:00S 32°36' E 152°38'5 9.4
2017-Dec-02 09:31S 32°40' E 152°35'510.0
2017-Dec-02 09:01S 32°44' E 152°31'510.0
2017-Dec-02 08:31S 32°48' E 152°28'5 9.4
2017-Dec-02 08:01S 32°50' E 152°23'510.2
2017-Dec-02 07:31S 32°52' E 152°17'510.6
2017-Dec-02 07:01S 32°53' E 152°11'510.6
2017-Dec-02 06:31S 32°55' E 152°05'510.5
2017-Dec-02 06:01S 32°57' E 151°59'510.6
2017-Dec-02 05:31S 32°57' E 151°53'4 8.0
2017-Dec-02 05:01S 32°55' E 151°49'2 4.5
2017-Dec-02 04:30S 32°55' E 151°46'2 3.0
2017-Dec-02 03:59S 32°53' E 151°46'0 0.0
2017-Dec-02 03:29S 32°53' E 151°46'0 0.0
2017-Dec-02 02:59S 32°53' E 151°46'0 0.0
2017-Dec-02 02:29S 32°53' E 151°46'0 0.0
2017-Dec-02 01:59S 32°53' E 151°46'0 0.0
2017-Dec-02 01:26S 32°53' E 151°46'0 0.0
2017-Dec-02 00:59S 32°53' E 151°46'0 0.0
2017-Dec-02 00:29S 32°53' E 151°46'0 0.0
2017-Dec-01 23:59S 32°53' E 151°46'0 0.0
2017-Dec-01 23:29S 32°53' E 151°46'0 0.0
2017-Dec-01 22:59S 32°53' E 151°46'0 0.0
2017-Dec-01 22:29S 32°53' E 151°46'0 0.0
2017-Dec-01 21:59S 32°53' E 151°46'0 0.0
2017-Dec-01 21:29S 32°53' E 151°46'0 0.0
2017-Dec-01 20:59S 32°53' E 151°46'0 0.0
2017-Dec-01 20:29S 32°53' E 151°46'0 0.0
2017-Dec-01 19:59S 32°53' E 151°46'0 0.0
2017-Dec-01 19:29S 32°53' E 151°46'0 0.0
2017-Dec-01 18:59S 32°53' E 151°46'0 0.0
2017-Dec-01 18:29S 32°53' E 151°46'0 0.0
2017-Dec-01 17:59S 32°53' E 151°46'0 0.0
2017-Dec-01 17:29S 32°53' E 151°46'0 0.0
2017-Dec-01 16:59S 32°53' E 151°46'0 0.0
2017-Dec-01 16:29S 32°53' E 151°46'0 0.0
2017-Dec-01 15:59S 32°53' E 151°46'0 0.0
2017-Dec-01 15:29S 32°53' E 151°46'0 0.0
2017-Dec-01 14:59S 32°53' E 151°46'0 0.0
2017-Dec-01 14:29S 32°53' E 151°46'0 0.0
2017-Dec-01 13:59S 32°53' E 151°46'0 0.0
2017-Dec-01 13:29S 32°53' E 151°46'0 0.0
2017-Dec-01 12:59S 32°53' E 151°46'0 0.0
2017-Dec-01 12:29S 32°53' E 151°46'0 0.0
2017-Dec-01 11:59S 32°53' E 151°46'0 0.0
2017-Dec-01 11:29S 32°53' E 151°46'0 0.0
2017-Dec-01 10:59S 32°53' E 151°46'0 0.0
2017-Dec-01 10:29S 32°53' E 151°46'0 0.0
2017-Dec-01 09:59S 32°53' E 151°46'0 0.8
2017-Dec-01 09:30S 32°54' E 151°46'2 4.0
2017-Dec-01 09:00S 32°55' E 151°48'4 8.1
2017-Dec-01 08:30S 32°58' E 151°51'4 8.7
2017-Dec-01 08:00S 33°02' E 151°54'5 9.1
2017-Dec-01 07:30S 33°06' E 151°56'2 3.3
2017-Dec-01 07:00S 33°06' E 151°58'1 3.0
2017-Dec-01 06:30S 33°05' E 151°60'2 3.2
2017-Dec-01 06:00S 33°05' E 152°01'2 3.1
2017-Dec-01 05:30S 33°04' E 152°03'2 3.1
2017-Dec-01 05:00S 33°04' E 152°05'2 3.2
2017-Dec-01 04:30S 33°03' E 152°07'2 3.3
2017-Dec-01 04:00S 33°03' E 152°09'3 5.6
2017-Dec-01 03:30S 33°05' E 152°08'5 9.9
2017-Dec-01 03:00S 33°10' E 152°07'3 6.5
2017-Dec-01 02:30S 33°13' E 152°05'2 3.5
2017-Dec-01 02:00S 33°12' E 152°06'2 3.4
2017-Dec-01 01:30S 33°10' E 152°06'2 3.2
2017-Dec-01 01:00S 33°08' E 152°07'2 3.0
2017-Dec-01 00:30S 33°07' E 152°07'4 8.8
2017-Dec-01 00:00S 33°03' E 152°05'611.5
2017-Nov-30 23:30S 32°59' E 152°00'3 5.5
2017-Nov-30 23:00S 32°56' E 152°02'611.8
2017-Nov-30 22:30S 32°54' E 152°08'713.7
2017-Nov-30 22:01S 32°52' E 152°16'713.8
2017-Nov-30 21:30S 32°49' E 152°24'713.9
2017-Nov-30 21:00S 32°46' E 152°31'713.5
2017-Nov-30 20:30S 32°41' E 152°36'713.7
2017-Nov-30 20:01S 32°35' E 152°40'714.3
2017-Nov-30 19:30S 32°28' E 152°44'23614.4
2017-Nov-30 03:08S 28°42' E 154°03'212.9
2017-Nov-30 03:00S 28°41' E 154°04'713.0
2017-Nov-30 02:30S 28°34' E 154°04'612.9
2017-Nov-30 02:00S 28°28' E 154°04'713.0
2017-Nov-30 01:29S 28°21' E 154°04'613.0
2017-Nov-30 01:00S 28°15' E 154°03'613.2
2017-Nov-30 00:30S 28°08' E 154°03'713.2
2017-Nov-30 00:00S 28°01' E 154°04'613.0
2017-Nov-29 23:30S 27°55' E 154°04'1313.5
2017-Nov-29 22:33S 27°42' E 154°04'  

Dump ship's entire track history